sensor_id;sensor_type;location;lat;lon;timestamp;pressure;altitude;pressure_sealevel;temperature;humidity
51147;BME280;37207;53.060;18.726;2023-03-14T00:01:08;98675.73;;;9.92;92.03
51147;BME280;37207;53.060;18.726;2023-03-14T00:03:34;98675.98;;;9.93;91.90
51147;BME280;37207;53.060;18.726;2023-03-14T00:06:02;98666.38;;;9.94;91.65
51147;BME280;37207;53.060;18.726;2023-03-14T00:08:29;98668.29;;;9.97;91.33
51147;BME280;37207;53.060;18.726;2023-03-14T00:10:56;98665.52;;;9.98;91.31
51147;BME280;37207;53.060;18.726;2023-03-14T00:13:24;98663.23;;;9.96;91.11
51147;BME280;37207;53.060;18.726;2023-03-14T00:15:51;98664.54;;;9.97;90.86
51147;BME280;37207;53.060;18.726;2023-03-14T00:18:17;98653.06;;;9.96;90.71
51147;BME280;37207;53.060;18.726;2023-03-14T00:20:46;98662.35;;;9.95;90.51
51147;BME280;37207;53.060;18.726;2023-03-14T00:23:12;98657.58;;;9.96;90.35
51147;BME280;37207;53.060;18.726;2023-03-14T00:25:39;98658.33;;;9.96;90.21
51147;BME280;37207;53.060;18.726;2023-03-14T00:28:05;98655.65;;;9.97;89.75
51147;BME280;37207;53.060;18.726;2023-03-14T00:30:32;98655.02;;;9.99;89.80
51147;BME280;37207;53.060;18.726;2023-03-14T00:32:58;98656.30;;;10.00;89.56
51147;BME280;37207;53.060;18.726;2023-03-14T00:35:25;98650.27;;;10.01;89.25
51147;BME280;37207;53.060;18.726;2023-03-14T00:37:53;98646.57;;;10.01;88.86
51147;BME280;37207;53.060;18.726;2023-03-14T00:40:19;98646.08;;;10.03;89.04
51147;BME280;37207;53.060;18.726;2023-03-14T00:42:48;98644.48;;;10.02;88.65
51147;BME280;37207;53.060;18.726;2023-03-14T00:45:15;98645.34;;;10.02;88.36
51147;BME280;37207;53.060;18.726;2023-03-14T00:47:41;98637.77;;;10.02;88.51
51147;BME280;37207;53.060;18.726;2023-03-14T00:50:12;98644.23;;;10.02;88.04
51147;BME280;37207;53.060;18.726;2023-03-14T00:52:39;98644.38;;;10.02;88.16
51147;BME280;37207;53.060;18.726;2023-03-14T00:55:06;98654.27;;;10.01;87.94
51147;BME280;37207;53.060;18.726;2023-03-14T00:57:33;98648.42;;;10.00;87.75
51147;BME280;37207;53.060;18.726;2023-03-14T00:59:59;98645.22;;;10.00;87.60
51147;BME280;37207;53.060;18.726;2023-03-14T01:02:26;98632.42;;;10.00;87.36
51147;BME280;37207;53.060;18.726;2023-03-14T01:04:53;98637.05;;;10.00;87.35
51147;BME280;37207;53.060;18.726;2023-03-14T01:07:19;98624.70;;;9.98;87.44
51147;BME280;37207;53.060;18.726;2023-03-14T01:09:46;98622.73;;;9.95;87.23
51147;BME280;37207;53.060;18.726;2023-03-14T01:12:12;98613.65;;;9.93;87.18
51147;BME280;37207;53.060;18.726;2023-03-14T01:14:42;98611.86;;;9.91;87.04
51147;BME280;37207;53.060;18.726;2023-03-14T01:17:09;98604.84;;;9.89;87.06
51147;BME280;37207;53.060;18.726;2023-03-14T01:19:35;98604.30;;;9.86;87.10
51147;BME280;37207;53.060;18.726;2023-03-14T01:22:02;98594.73;;;9.83;87.03
51147;BME280;37207;53.060;18.726;2023-03-14T01:24:28;98587.74;;;9.81;86.88
51147;BME280;37207;53.060;18.726;2023-03-14T01:26:55;98581.83;;;9.81;86.83
51147;BME280;37207;53.060;18.726;2023-03-14T01:29:23;98578.29;;;9.80;86.81
51147;BME280;37207;53.060;18.726;2023-03-14T01:31:49;98579.41;;;9.79;86.80
51147;BME280;37207;53.060;18.726;2023-03-14T01:34:16;98591.31;;;9.77;86.62
51147;BME280;37207;53.060;18.726;2023-03-14T01:36:42;98584.66;;;9.74;86.76
51147;BME280;37207;53.060;18.726;2023-03-14T01:39:09;98582.50;;;9.73;86.72
51147;BME280;37207;53.060;18.726;2023-03-14T01:41:36;98579.45;;;9.70;86.71
51147;BME280;37207;53.060;18.726;2023-03-14T01:44:02;98578.95;;;9.68;86.64
51147;BME280;37207;53.060;18.726;2023-03-14T01:46:37;98584.27;;;9.68;86.68
51147;BME280;37207;53.060;18.726;2023-03-14T01:52:25;98582.95;;;9.66;86.62
51147;BME280;37207;53.060;18.726;2023-03-14T01:54:55;98583.23;;;9.64;86.62
51147;BME280;37207;53.060;18.726;2023-03-14T01:57:41;98579.09;;;9.63;86.59
51147;BME280;37207;53.060;18.726;2023-03-14T02:00:13;98571.05;;;9.61;86.60
51147;BME280;37207;53.060;18.726;2023-03-14T02:02:43;98565.44;;;9.60;86.60
51147;BME280;37207;53.060;18.726;2023-03-14T02:05:14;98557.15;;;9.61;86.52
51147;BME280;37207;53.060;18.726;2023-03-14T02:07:49;98558.06;;;9.61;86.54
51147;BME280;37207;53.060;18.726;2023-03-14T02:10:24;98552.71;;;9.61;86.46
51147;BME280;37207;53.060;18.726;2023-03-14T02:12:52;98548.13;;;9.62;86.38
51147;BME280;37207;53.060;18.726;2023-03-14T02:15:33;98546.69;;;9.61;86.39
51147;BME280;37207;53.060;18.726;2023-03-14T02:18:27;98538.08;;;9.61;86.37
51147;BME280;37207;53.060;18.726;2023-03-14T02:21:44;98532.08;;;9.60;86.26
51147;BME280;37207;53.060;18.726;2023-03-14T02:24:32;98523.01;;;9.59;86.35
51147;BME280;37207;53.060;18.726;2023-03-14T02:27:08;98514.01;;;9.59;86.33
51147;BME280;37207;53.060;18.726;2023-03-14T02:29:45;98511.14;;;9.59;86.43
51147;BME280;37207;53.060;18.726;2023-03-14T02:32:13;98506.69;;;9.59;86.31
51147;BME280;37207;53.060;18.726;2023-03-14T02:34:42;98507.60;;;9.58;86.37
51147;BME280;37207;53.060;18.726;2023-03-14T02:37:09;98500.33;;;9.59;86.33
51147;BME280;37207;53.060;18.726;2023-03-14T02:39:42;98492.09;;;9.59;86.30
51147;BME280;37207;53.060;18.726;2023-03-14T02:42:13;98486.89;;;9.59;86.48
51147;BME280;37207;53.060;18.726;2023-03-14T02:44:53;98491.39;;;9.59;86.42
51147;BME280;37207;53.060;18.726;2023-03-14T02:47:28;98507.02;;;9.60;86.56
51147;BME280;37207;53.060;18.726;2023-03-14T02:50:03;98516.13;;;9.61;86.61
51147;BME280;37207;53.060;18.726;2023-03-14T02:52:30;98522.84;;;9.60;86.54
51147;BME280;37207;53.060;18.726;2023-03-14T02:54:57;98517.27;;;9.58;86.54
51147;BME280;37207;53.060;18.726;2023-03-14T02:57:24;98518.83;;;9.55;86.61
51147;BME280;37207;53.060;18.726;2023-03-14T02:59:50;98519.86;;;9.52;86.43
51147;BME280;37207;53.060;18.726;2023-03-14T03:02:19;98534.99;;;9.49;86.47
51147;BME280;37207;53.060;18.726;2023-03-14T03:04:46;98544.30;;;9.46;86.61
51147;BME280;37207;53.060;18.726;2023-03-14T03:07:12;98535.23;;;9.43;86.49
51147;BME280;37207;53.060;18.726;2023-03-14T03:09:39;98521.44;;;9.40;86.58
51147;BME280;37207;53.060;18.726;2023-03-14T03:12:05;98513.81;;;9.37;86.56
51147;BME280;37207;53.060;18.726;2023-03-14T03:14:32;98515.73;;;9.35;86.55
51147;BME280;37207;53.060;18.726;2023-03-14T03:17:00;98523.49;;;9.32;86.72
51147;BME280;37207;53.060;18.726;2023-03-14T03:19:27;98544.84;;;9.29;86.55
51147;BME280;37207;53.060;18.726;2023-03-14T03:21:53;98551.11;;;9.24;86.60
51147;BME280;37207;53.060;18.726;2023-03-14T03:24:20;98559.98;;;9.21;86.73
51147;BME280;37207;53.060;18.726;2023-03-14T03:26:46;98566.91;;;9.17;86.72
51147;BME280;37207;53.060;18.726;2023-03-14T03:29:13;98568.42;;;9.15;86.89
51147;BME280;37207;53.060;18.726;2023-03-14T03:31:40;98579.86;;;9.12;86.82
51147;BME280;37207;53.060;18.726;2023-03-14T03:34:06;98580.89;;;9.11;87.05
51147;BME280;37207;53.060;18.726;2023-03-14T03:36:33;98583.27;;;9.08;86.99
51147;BME280;37207;53.060;18.726;2023-03-14T03:39:00;98568.52;;;9.07;87.33
51147;BME280;37207;53.060;18.726;2023-03-14T03:41:26;98560.34;;;9.05;87.25
51147;BME280;37207;53.060;18.726;2023-03-14T03:43:53;98552.45;;;9.03;87.52
51147;BME280;37207;53.060;18.726;2023-03-14T03:46:21;98536.09;;;9.02;87.76
51147;BME280;37207;53.060;18.726;2023-03-14T03:48:48;98531.69;;;9.01;88.04
51147;BME280;37207;53.060;18.726;2023-03-14T03:51:15;98529.14;;;8.99;88.07
51147;BME280;37207;53.060;18.726;2023-03-14T03:53:43;98517.95;;;8.97;88.51
51147;BME280;37207;53.060;18.726;2023-03-14T03:56:11;98511.25;;;8.97;88.80
51147;BME280;37207;53.060;18.726;2023-03-14T03:58:38;98498.23;;;8.95;88.76
51147;BME280;37207;53.060;18.726;2023-03-14T04:01:06;98493.75;;;8.93;88.95
51147;BME280;37207;53.060;18.726;2023-03-14T04:03:33;98486.61;;;8.90;89.31
51147;BME280;37207;53.060;18.726;2023-03-14T04:06:05;98486.08;;;8.89;89.40
51147;BME280;37207;53.060;18.726;2023-03-14T04:08:34;98477.03;;;8.88;89.82
51147;BME280;37207;53.060;18.726;2023-03-14T04:11:02;98475.84;;;8.88;90.03
51147;BME280;37207;53.060;18.726;2023-03-14T04:13:52;98478.00;;;8.87;90.20
51147;BME280;37207;53.060;18.726;2023-03-14T04:16:21;98475.10;;;8.87;90.40
51147;BME280;37207;53.060;18.726;2023-03-14T04:18:50;98481.55;;;8.87;90.63
51147;BME280;37207;53.060;18.726;2023-03-14T04:21:20;98483.20;;;8.87;90.79
51147;BME280;37207;53.060;18.726;2023-03-14T04:23:54;98476.90;;;8.87;91.02
51147;BME280;37207;53.060;18.726;2023-03-14T04:26:20;98468.09;;;8.87;91.14
51147;BME280;37207;53.060;18.726;2023-03-14T04:28:47;98461.63;;;8.87;91.31
51147;BME280;37207;53.060;18.726;2023-03-14T04:31:19;98459.83;;;8.87;91.39
51147;BME280;37207;53.060;18.726;2023-03-14T04:33:47;98452.41;;;8.87;91.52
51147;BME280;37207;53.060;18.726;2023-03-14T04:36:16;98449.52;;;8.87;91.76
51147;BME280;37207;53.060;18.726;2023-03-14T04:38:43;98446.96;;;8.87;91.85
51147;BME280;37207;53.060;18.726;2023-03-14T04:41:10;98456.63;;;8.87;92.01
51147;BME280;37207;53.060;18.726;2023-03-14T04:43:37;98463.98;;;8.87;92.27
51147;BME280;37207;53.060;18.726;2023-03-14T04:46:06;98467.05;;;8.87;92.27
51147;BME280;37207;53.060;18.726;2023-03-14T04:48:33;98459.34;;;8.87;92.27
51147;BME280;37207;53.060;18.726;2023-03-14T04:51:01;98452.18;;;8.87;92.37
51147;BME280;37207;53.060;18.726;2023-03-14T04:53:31;98453.69;;;8.86;92.33
51147;BME280;37207;53.060;18.726;2023-03-14T04:55:58;98450.48;;;8.86;92.50
51147;BME280;37207;53.060;18.726;2023-03-14T04:58:30;98443.38;;;8.85;92.48
51147;BME280;37207;53.060;18.726;2023-03-14T05:01:05;98440.14;;;8.85;92.49
51147;BME280;37207;53.060;18.726;2023-03-14T05:03:50;98438.30;;;8.83;92.39
51147;BME280;37207;53.060;18.726;2023-03-14T05:06:28;98441.48;;;8.82;92.32
51147;BME280;37207;53.060;18.726;2023-03-14T05:09:21;98440.89;;;8.80;92.31
51147;BME280;37207;53.060;18.726;2023-03-14T05:12:17;98438.81;;;8.79;92.33
51147;BME280;37207;53.060;18.726;2023-03-14T05:15:08;98430.86;;;8.78;92.35
51147;BME280;37207;53.060;18.726;2023-03-14T05:17:48;98436.48;;;8.78;92.20
51147;BME280;37207;53.060;18.726;2023-03-14T05:20:38;98444.59;;;8.77;92.31
51147;BME280;37207;53.060;18.726;2023-03-14T05:23:20;98443.50;;;8.76;92.19
51147;BME280;37207;53.060;18.726;2023-03-14T05:26:04;98448.08;;;8.75;92.06
51147;BME280;37207;53.060;18.726;2023-03-14T05:28:44;98448.73;;;8.75;91.98
51147;BME280;37207;53.060;18.726;2023-03-14T05:31:19;98441.77;;;8.74;91.90
51147;BME280;37207;53.060;18.726;2023-03-14T05:34:00;98439.02;;;8.74;91.82
51147;BME280;37207;53.060;18.726;2023-03-14T05:36:35;98442.69;;;8.73;91.67
51147;BME280;37207;53.060;18.726;2023-03-14T05:39:18;98447.74;;;8.73;91.69
51147;BME280;37207;53.060;18.726;2023-03-14T05:41:57;98442.69;;;8.73;91.57
51147;BME280;37207;53.060;18.726;2023-03-14T05:44:44;98434.36;;;8.74;91.34
51147;BME280;37207;53.060;18.726;2023-03-14T05:47:36;98433.70;;;8.76;91.21
51147;BME280;37207;53.060;18.726;2023-03-14T05:50:35;98433.88;;;8.78;91.01
51147;BME280;37207;53.060;18.726;2023-03-14T05:53:19;98420.09;;;8.79;90.85
51147;BME280;37207;53.060;18.726;2023-03-14T05:55:55;98407.71;;;8.80;90.68
51147;BME280;37207;53.060;18.726;2023-03-14T05:58:51;98415.27;;;8.83;90.41
51147;BME280;37207;53.060;18.726;2023-03-14T06:01:32;98406.04;;;8.86;90.18
51147;BME280;37207;53.060;18.726;2023-03-14T06:04:10;98409.46;;;8.91;89.97
51147;BME280;37207;53.060;18.726;2023-03-14T06:06:36;98413.31;;;8.98;89.75
51147;BME280;37207;53.060;18.726;2023-03-14T06:09:03;98420.25;;;9.03;89.61
51147;BME280;37207;53.060;18.726;2023-03-14T06:11:31;98420.89;;;9.11;89.24
51147;BME280;37207;53.060;18.726;2023-03-14T06:13:58;98417.63;;;9.16;89.18
51147;BME280;37207;53.060;18.726;2023-03-14T06:16:25;98429.09;;;9.22;88.97
51147;BME280;37207;53.060;18.726;2023-03-14T06:18:53;98439.53;;;9.27;88.50
51147;BME280;37207;53.060;18.726;2023-03-14T06:21:20;98444.33;;;9.30;88.30
51147;BME280;37207;53.060;18.726;2023-03-14T06:23:47;98438.31;;;9.33;88.09
51147;BME280;37207;53.060;18.726;2023-03-14T06:26:14;98431.99;;;9.36;87.81
51147;BME280;37207;53.060;18.726;2023-03-14T06:28:40;98427.37;;;9.39;87.24
51147;BME280;37207;53.060;18.726;2023-03-14T06:31:07;98435.98;;;9.42;86.91
51147;BME280;37207;53.060;18.726;2023-03-14T06:33:39;98426.66;;;9.46;86.76
51147;BME280;37207;53.060;18.726;2023-03-14T06:36:07;98426.64;;;9.50;86.68
51147;BME280;37207;53.060;18.726;2023-03-14T06:38:34;98434.98;;;9.55;86.27
51147;BME280;37207;53.060;18.726;2023-03-14T06:41:06;98441.66;;;9.60;85.98
51147;BME280;37207;53.060;18.726;2023-03-14T06:43:38;98429.30;;;9.65;85.72
51147;BME280;37207;53.060;18.726;2023-03-14T06:46:05;98436.87;;;9.67;85.50
51147;BME280;37207;53.060;18.726;2023-03-14T06:48:32;98434.88;;;9.69;85.12
51147;BME280;37207;53.060;18.726;2023-03-14T06:50:58;98459.63;;;9.71;84.95
51147;BME280;37207;53.060;18.726;2023-03-14T06:53:25;98456.28;;;9.73;84.79
51147;BME280;37207;53.060;18.726;2023-03-14T06:55:53;98447.23;;;9.78;84.71
51147;BME280;37207;53.060;18.726;2023-03-14T06:58:20;98440.16;;;9.83;84.39
51147;BME280;37207;53.060;18.726;2023-03-14T07:00:46;98432.98;;;9.88;84.31
51147;BME280;37207;53.060;18.726;2023-03-14T07:03:16;98441.20;;;9.93;84.06
51147;BME280;37207;53.060;18.726;2023-03-14T07:05:45;98447.31;;;9.96;83.87
51147;BME280;37207;53.060;18.726;2023-03-14T07:08:11;98455.07;;;9.96;83.59
51147;BME280;37207;53.060;18.726;2023-03-14T07:10:38;98459.98;;;9.97;83.24
51147;BME280;37207;53.060;18.726;2023-03-14T07:13:06;98453.73;;;9.98;83.00
51147;BME280;37207;53.060;18.726;2023-03-14T07:15:35;98466.98;;;10.00;82.92
51147;BME280;37207;53.060;18.726;2023-03-14T07:18:05;98468.33;;;10.01;82.89
51147;BME280;37207;53.060;18.726;2023-03-14T07:20:31;98459.59;;;10.04;82.62
51147;BME280;37207;53.060;18.726;2023-03-14T07:22:58;98464.40;;;10.16;82.32
51147;BME280;37207;53.060;18.726;2023-03-14T07:25:35;98470.23;;;10.35;81.56
51147;BME280;37207;53.060;18.726;2023-03-14T07:28:02;98478.91;;;10.56;81.28
51147;BME280;37207;53.060;18.726;2023-03-14T07:30:29;98479.25;;;10.99;80.71
51147;BME280;37207;53.060;18.726;2023-03-14T07:32:57;98471.77;;;11.35;80.18
51147;BME280;37207;53.060;18.726;2023-03-14T07:35:24;98462.96;;;11.60;79.64
51147;BME280;37207;53.060;18.726;2023-03-14T07:37:50;98453.31;;;11.98;78.24
51147;BME280;37207;53.060;18.726;2023-03-14T07:40:19;98441.19;;;12.76;77.61
51147;BME280;37207;53.060;18.726;2023-03-14T07:42:46;98438.25;;;12.92;76.68
51147;BME280;37207;53.060;18.726;2023-03-14T07:45:22;98436.71;;;12.70;76.03
51147;BME280;37207;53.060;18.726;2023-03-14T07:47:48;98437.73;;;12.43;76.04
51147;BME280;37207;53.060;18.726;2023-03-14T07:50:15;98439.23;;;12.21;75.75
51147;BME280;37207;53.060;18.726;2023-03-14T07:52:42;98437.69;;;12.03;75.85
51147;BME280;37207;53.060;18.726;2023-03-14T07:55:08;98434.40;;;11.95;76.04
51147;BME280;37207;53.060;18.726;2023-03-14T07:57:35;98436.34;;;11.87;75.24
51147;BME280;37207;53.060;18.726;2023-03-14T08:00:02;98441.80;;;11.84;75.68
51147;BME280;37207;53.060;18.726;2023-03-14T08:02:40;98436.15;;;11.79;74.88
51147;BME280;37207;53.060;18.726;2023-03-14T08:05:07;98430.61;;;11.70;75.44
51147;BME280;37207;53.060;18.726;2023-03-14T08:07:34;98439.55;;;11.59;75.41
51147;BME280;37207;53.060;18.726;2023-03-14T08:10:00;98442.65;;;11.48;75.57
51147;BME280;37207;53.060;18.726;2023-03-14T08:12:27;98438.38;;;11.41;75.36
51147;BME280;37207;53.060;18.726;2023-03-14T08:14:54;98433.21;;;11.35;75.67
51147;BME280;37207;53.060;18.726;2023-03-14T08:17:20;98430.95;;;11.29;75.81
51147;BME280;37207;53.060;18.726;2023-03-14T08:19:47;98426.00;;;11.24;75.86
51147;BME280;37207;53.060;18.726;2023-03-14T08:22:13;98422.04;;;11.17;76.01
51147;BME280;37207;53.060;18.726;2023-03-14T08:24:40;98421.77;;;11.11;75.90
51147;BME280;37207;53.060;18.726;2023-03-14T08:27:07;98422.98;;;11.08;76.55
51147;BME280;37207;53.060;18.726;2023-03-14T08:29:34;98416.73;;;11.06;76.53
51147;BME280;37207;53.060;18.726;2023-03-14T08:32:00;98412.77;;;11.04;76.64
51147;BME280;37207;53.060;18.726;2023-03-14T08:34:27;98413.31;;;11.02;76.50
51147;BME280;37207;53.060;18.726;2023-03-14T08:36:53;98409.43;;;11.01;76.67
51147;BME280;37207;53.060;18.726;2023-03-14T08:39:23;98400.73;;;10.99;76.90
51147;BME280;37207;53.060;18.726;2023-03-14T08:41:49;98396.88;;;10.98;77.26
51147;BME280;37207;53.060;18.726;2023-03-14T08:44:16;98395.02;;;10.96;77.00
51147;BME280;37207;53.060;18.726;2023-03-14T08:46:43;98392.73;;;10.94;77.37
51147;BME280;37207;53.060;18.726;2023-03-14T08:49:09;98390.60;;;10.92;77.32
51147;BME280;37207;53.060;18.726;2023-03-14T08:51:36;98389.10;;;10.91;77.55
51147;BME280;37207;53.060;18.726;2023-03-14T08:54:03;98391.13;;;10.91;77.67
51147;BME280;37207;53.060;18.726;2023-03-14T08:56:30;98393.73;;;10.92;77.72
51147;BME280;37207;53.060;18.726;2023-03-14T08:58:56;98397.59;;;10.95;77.96
51147;BME280;37207;53.060;18.726;2023-03-14T09:01:23;98407.45;;;10.98;78.08
51147;BME280;37207;53.060;18.726;2023-03-14T09:03:51;98407.03;;;11.01;78.26
51147;BME280;37207;53.060;18.726;2023-03-14T09:06:18;98413.23;;;11.03;78.21
51147;BME280;37207;53.060;18.726;2023-03-14T09:08:45;98424.42;;;11.06;78.18
51147;BME280;37207;53.060;18.726;2023-03-14T09:11:12;98434.56;;;11.08;78.32
51147;BME280;37207;53.060;18.726;2023-03-14T09:13:40;98431.52;;;11.11;78.55
51147;BME280;37207;53.060;18.726;2023-03-14T09:16:07;98429.73;;;11.13;78.58
51147;BME280;37207;53.060;18.726;2023-03-14T09:18:34;98433.58;;;11.18;78.39
51147;BME280;37207;53.060;18.726;2023-03-14T09:21:00;98430.63;;;11.21;78.31
51147;BME280;37207;53.060;18.726;2023-03-14T09:23:27;98430.64;;;11.24;78.31
51147;BME280;37207;53.060;18.726;2023-03-14T09:25:57;98436.02;;;11.27;78.45
51147;BME280;37207;53.060;18.726;2023-03-14T09:28:25;98440.50;;;11.29;78.45
51147;BME280;37207;53.060;18.726;2023-03-14T09:30:52;98443.23;;;11.30;78.61
51147;BME280;37207;53.060;18.726;2023-03-14T09:33:18;98447.11;;;11.32;78.46
51147;BME280;37207;53.060;18.726;2023-03-14T09:35:45;98446.98;;;11.33;78.58
51147;BME280;37207;53.060;18.726;2023-03-14T09:38:12;98447.45;;;11.36;78.66
51147;BME280;37207;53.060;18.726;2023-03-14T09:40:39;98451.80;;;11.41;78.63
51147;BME280;37207;53.060;18.726;2023-03-14T09:43:05;98442.43;;;11.49;78.83
51147;BME280;37207;53.060;18.726;2023-03-14T09:45:37;98435.19;;;11.64;78.83
51147;BME280;37207;53.060;18.726;2023-03-14T09:48:14;98429.87;;;11.86;78.41
51147;BME280;37207;53.060;18.726;2023-03-14T09:50:45;98421.10;;;12.09;78.23
51147;BME280;37207;53.060;18.726;2023-03-14T09:53:16;98415.64;;;12.20;77.50
51147;BME280;37207;53.060;18.726;2023-03-14T09:55:49;98416.42;;;12.24;77.61
51147;BME280;37207;53.060;18.726;2023-03-14T09:58:19;98415.89;;;12.29;77.57
51147;BME280;37207;53.060;18.726;2023-03-14T10:00:47;98418.95;;;12.31;77.18
51147;BME280;37207;53.060;18.726;2023-03-14T10:05:41;98414.75;;;12.29;76.95
51147;BME280;37207;53.060;18.726;2023-03-14T10:08:12;98423.38;;;12.29;77.26
51147;BME280;37207;53.060;18.726;2023-03-14T10:10:39;98425.52;;;12.31;77.00
51147;BME280;37207;53.060;18.726;2023-03-14T10:15:37;98421.53;;;12.40;77.17
51147;BME280;37207;53.060;18.726;2023-03-14T10:18:11;98425.20;;;12.45;76.98
51147;BME280;37207;53.060;18.726;2023-03-14T10:20:44;98424.30;;;12.51;76.67
51147;BME280;37207;53.060;18.726;2023-03-14T10:25:48;98413.26;;;12.65;76.54
51147;BME280;37207;53.060;18.726;2023-03-14T10:28:32;98416.45;;;12.73;76.49
51147;BME280;37207;53.060;18.726;2023-03-14T10:31:00;98418.19;;;12.88;75.85
51147;BME280;37207;53.060;18.726;2023-03-14T10:33:32;98420.81;;;13.03;75.47
51147;BME280;37207;53.060;18.726;2023-03-14T10:36:21;98414.50;;;13.22;75.15
51147;BME280;37207;53.060;18.726;2023-03-14T10:38:49;98414.60;;;13.63;74.55
51147;BME280;37207;53.060;18.726;2023-03-14T10:41:26;98410.10;;;14.01;73.96
51147;BME280;37207;53.060;18.726;2023-03-14T10:43:56;98410.00;;;14.22;73.69
51147;BME280;37207;53.060;18.726;2023-03-14T10:46:26;98410.22;;;14.29;73.36
51147;BME280;37207;53.060;18.726;2023-03-14T10:49:29;98411.95;;;14.37;72.22
51147;BME280;37207;53.060;18.726;2023-03-14T10:52:01;98410.45;;;14.36;72.39
51147;BME280;37207;53.060;18.726;2023-03-14T10:54:30;98418.64;;;14.24;72.33
51147;BME280;37207;53.060;18.726;2023-03-14T10:57:00;98413.48;;;14.08;72.31
51147;BME280;37207;53.060;18.726;2023-03-14T10:59:29;98414.18;;;13.89;72.09
51147;BME280;37207;53.060;18.726;2023-03-14T11:02:39;98411.02;;;13.69;71.57
51147;BME280;37207;53.060;18.726;2023-03-14T11:07:53;98400.27;;;13.29;72.05
51147;BME280;37207;53.060;18.726;2023-03-14T11:10:38;98400.56;;;13.15;72.22
51147;BME280;37207;53.060;18.726;2023-03-14T11:13:34;98397.45;;;13.02;72.27
51147;BME280;37207;53.060;18.726;2023-03-14T11:16:09;98403.08;;;12.91;72.63
51147;BME280;37207;53.060;18.726;2023-03-14T11:19:09;98389.62;;;12.85;72.91
51147;BME280;37207;53.060;18.726;2023-03-14T11:21:51;98394.40;;;12.81;73.08
51147;BME280;37207;53.060;18.726;2023-03-14T11:36:08;98411.20;;;12.77;73.56
51147;BME280;37207;53.060;18.726;2023-03-14T11:38:51;98414.09;;;12.75;73.55
51147;BME280;37207;53.060;18.726;2023-03-14T11:41:23;98408.42;;;12.72;73.70
51147;BME280;37207;53.060;18.726;2023-03-14T11:43:54;98417.91;;;12.70;73.97
51147;BME280;37207;53.060;18.726;2023-03-14T11:46:26;98416.35;;;12.67;73.88
51147;BME280;37207;53.060;18.726;2023-03-14T11:49:03;98415.19;;;12.61;73.95
51147;BME280;37207;53.060;18.726;2023-03-14T11:51:39;98417.75;;;12.56;74.10
51147;BME280;37207;53.060;18.726;2023-03-14T11:54:21;98421.39;;;12.52;74.22
51147;BME280;37207;53.060;18.726;2023-03-14T11:56:55;98424.70;;;12.47;73.94
51147;BME280;37207;53.060;18.726;2023-03-14T11:59:47;98418.56;;;12.45;74.25
51147;BME280;37207;53.060;18.726;2023-03-14T12:10:48;98415.37;;;12.50;74.47
51147;BME280;37207;53.060;18.726;2023-03-14T12:13:16;98410.36;;;12.54;74.87
51147;BME280;37207;53.060;18.726;2023-03-14T12:18:21;98412.58;;;12.65;74.58
51147;BME280;37207;53.060;18.726;2023-03-14T12:20:55;98412.19;;;12.69;74.57
51147;BME280;37207;53.060;18.726;2023-03-14T12:23:24;98409.58;;;12.74;74.60
51147;BME280;37207;53.060;18.726;2023-03-14T12:26:22;98403.45;;;12.78;74.76
51147;BME280;37207;53.060;18.726;2023-03-14T12:42:24;98400.65;;;12.78;74.42
51147;BME280;37207;53.060;18.726;2023-03-14T12:45:23;98401.55;;;12.82;74.65
51147;BME280;37207;53.060;18.726;2023-03-14T12:48:00;98405.06;;;12.85;74.38
51147;BME280;37207;53.060;18.726;2023-03-14T12:50:33;98393.13;;;12.86;74.12
51147;BME280;37207;53.060;18.726;2023-03-14T12:53:06;98393.91;;;12.87;74.09
51147;BME280;37207;53.060;18.726;2023-03-14T12:55:49;98399.68;;;12.88;73.82
51147;BME280;37207;53.060;18.726;2023-03-14T13:01:28;98406.61;;;12.89;73.69
51147;BME280;37207;53.060;18.726;2023-03-14T13:03:57;98405.21;;;12.88;73.70
51147;BME280;37207;53.060;18.726;2023-03-14T13:11:55;98379.57;;;13.04;73.25
51147;BME280;37207;53.060;18.726;2023-03-14T13:14:23;98379.85;;;13.28;72.69
51147;BME280;37207;53.060;18.726;2023-03-14T13:16:49;98384.67;;;13.40;71.95
51147;BME280;37207;53.060;18.726;2023-03-14T13:19:20;98389.95;;;13.45;71.65
51147;BME280;37207;53.060;18.726;2023-03-14T13:21:48;98385.14;;;13.49;72.19
51147;BME280;37207;53.060;18.726;2023-03-14T13:24:22;98387.10;;;13.52;72.16
51147;BME280;37207;53.060;18.726;2023-03-14T13:26:52;98381.66;;;13.55;71.54
51147;BME280;37207;53.060;18.726;2023-03-14T13:29:24;98382.48;;;13.53;70.98
51147;BME280;37207;53.060;18.726;2023-03-14T13:31:53;98388.38;;;13.51;71.09
51147;BME280;37207;53.060;18.726;2023-03-14T13:34:20;98376.75;;;13.54;71.07
51147;BME280;37207;53.060;18.726;2023-03-14T13:36:47;98379.44;;;13.63;71.23
51147;BME280;37207;53.060;18.726;2023-03-14T13:39:21;98377.94;;;13.74;71.38
51147;BME280;37207;53.060;18.726;2023-03-14T13:41:53;98381.41;;;13.80;71.17
51147;BME280;37207;53.060;18.726;2023-03-14T13:46:58;98379.02;;;13.85;71.01
51147;BME280;37207;53.060;18.726;2023-03-14T13:49:27;98376.66;;;13.88;70.80
51147;BME280;37207;53.060;18.726;2023-03-14T13:51:55;98378.44;;;13.89;70.58
51147;BME280;37207;53.060;18.726;2023-03-14T13:54:22;98375.20;;;13.92;70.53
51147;BME280;37207;53.060;18.726;2023-03-14T13:56:59;98376.09;;;13.94;70.72
51147;BME280;37207;53.060;18.726;2023-03-14T13:59:34;98374.45;;;13.98;69.66
51147;BME280;37207;53.060;18.726;2023-03-14T14:02:05;98372.34;;;14.02;69.84
51147;BME280;37207;53.060;18.726;2023-03-14T14:04:39;98372.49;;;14.03;69.72
51147;BME280;37207;53.060;18.726;2023-03-14T14:07:07;98369.13;;;13.97;69.63
51147;BME280;37207;53.060;18.726;2023-03-14T14:09:39;98374.02;;;13.90;70.08
51147;BME280;37207;53.060;18.726;2023-03-14T14:15:20;98370.98;;;13.73;69.74
51147;BME280;37207;53.060;18.726;2023-03-14T14:17:54;98368.70;;;13.67;69.66
51147;BME280;37207;53.060;18.726;2023-03-14T14:20:24;98370.16;;;13.58;69.36